ADDS METAR Data INFO
IDs: Format: Raw Decoded Include TAF

Data at: 0718 UTC 24 Jun 2018

KVNC 240715Z AUTO 00000KT 10SM CLR 27/25 A3001 RMK AO2
KVNC 240655Z AUTO 00000KT 10SM CLR 27/25 A3001 RMK AO2
KVNC 240635Z AUTO 00000KT 10SM CLR 27/25 A3001 RMK AO2
KVNC 240615Z AUTO 00000KT 10SM CLR 27/25 A3002 RMK AO2
KVNC 240555Z AUTO 00000KT 10SM CLR 27/25 A3002 RMK AO2
KVNC 240535Z AUTO 00000KT 10SM CLR 27/25 A3003 RMK AO2
KVNC 240515Z AUTO 08003KT 10SM CLR 27/25 A3003 RMK AO2
KVNC 240455Z AUTO 00000KT 10SM CLR 27/25 A3003 RMK AO2
KVNC 240435Z AUTO 00000KT 10SM CLR 27/25 A3004 RMK AO2
KVNC 240415Z AUTO 08003KT 10SM CLR 27/25 A3004 RMK AO2
KVNC 240355Z AUTO 10003KT 10SM CLR 27/25 A3005 RMK AO2
KVNC 240335Z AUTO 11004KT 10SM FEW025 28/25 A3005 RMK AO2
KVNC 240315Z AUTO 10006KT 10SM FEW034 29/25 A3005 RMK AO2
KVNC 240255Z AUTO 33003KT 10SM FEW034 30/24 A3004 RMK AO2
KVNC 240235Z AUTO 00000KT 10SM CLR 29/24 A3002 RMK AO2
KVNC 240215Z AUTO 31003KT 10SM CLR 29/24 A3002 RMK AO2
KVNC 240155Z AUTO 31004KT 10SM CLR 30/24 A3002 RMK AO2
KVNC 240135Z AUTO 31005KT 10SM CLR 30/24 A3001 RMK AO2
KVNC 240115Z AUTO 32007KT 10SM CLR 30/24 A3001 RMK AO2
KVNC 240055Z AUTO 31006KT 10SM CLR 30/24 A3001 RMK AO2
KVNC 240035Z AUTO 32008KT 10SM CLR 30/24 A3000 RMK AO2
KVNC 240015Z AUTO 32007KT 10SM CLR 30/24 A3001 RMK AO2
KVNC 232355Z AUTO 32007KT 10SM CLR 30/24 A3000 RMK AO2
KVNC 232335Z AUTO 31007KT 10SM CLR 30/24 A3000 RMK AO2 LTG DSNT NE AND S
KVNC 232315Z AUTO 32008KT 10SM CLR 30/24 A3001 RMK AO2
KVNC 232255Z AUTO 31008KT 10SM CLR 30/23 A3001 RMK AO2
KVNC 232235Z AUTO 32009KT 10SM CLR 30/23 A3000 RMK AO2
KVNC 232215Z AUTO 32010KT 10SM CLR 30/23 A3001 RMK AO2
KVNC 232155Z AUTO 30010KT 10SM CLR 31/23 A3001 RMK AO2 LTG DSNT E AND SE
KVNC 232135Z AUTO 31011KT 10SM CLR 32/24 A3001 RMK AO2
KVNC 232115Z AUTO 30011KT 10SM VCTS CLR 32/24 A3001 RMK AO2 LTG DSNT E
KVNC 232055Z AUTO 30010KT 10SM CLR 33/25 A3001 RMK AO2 LTG DSNT E AND SE
KVNC 232035Z AUTO 30010KT 10SM CLR 33/24 A3000 RMK AO2 LTG DSNT E AND SE
KVNC 232015Z AUTO 31011KT 10SM CLR 32/24 A3001 RMK AO2 LTG DSNT E AND SE
KVNC 231955Z AUTO 31012KT 10SM CLR 33/25 A3001 RMK AO2 LTG DSNT E AND SE
KVNC 231935Z AUTO 31012KT 10SM CLR 33/24 A3002 RMK AO2 LTG DSNT E AND SE
KVNC 231915Z AUTO 29011KT 10SM CLR 32/24 A3002 RMK AO2 LTG DSNT SE
KVNC 231855Z AUTO 29009G14KT 10SM CLR 33/24 A3002 RMK AO2
KVNC 231835Z AUTO 30011KT 10SM CLR 33/24 A3003 RMK AO2 LTG DSNT SE
KVNC 231815Z AUTO 30011KT 10SM CLR 33/24 A3003 RMK AO2
KVNC 231755Z AUTO 30011KT 10SM CLR 32/24 A3004 RMK AO2
KVNC 231735Z AUTO 29009KT 10SM CLR 32/24 A3004 RMK AO2
KVNC 231715Z AUTO 30009KT 10SM CLR 32/25 A3004 RMK AO2
KVNC 231655Z AUTO 30009KT 10SM CLR 32/24 A3004 RMK AO2
KVNC 231635Z AUTO 28009KT 10SM FEW025 FEW030 32/25 A3005 RMK AO2
KVNC 231615Z AUTO 29008KT 10SM FEW025 32/24 A3005 RMK AO2 LTG DSNT SE
KVNC 231555Z AUTO 28008KT 10SM CLR 32/24 A3005 RMK AO2
KVNC 231535Z AUTO 30007KT 10SM CLR 32/24 A3005 RMK AO2
KVNC 231515Z AUTO 28008KT 10SM CLR 32/24 A3005 RMK AO2
KVNC 231455Z AUTO 28006KT 10SM CLR 32/23 A3004 RMK AO2
KVNC 231435Z AUTO 28007KT 9SM CLR 32/23 A3004 RMK AO2
KVNC 231415Z AUTO 29008KT 10SM CLR 31/24 A3004 RMK AO2
KVNC 231355Z AUTO 29008KT 9SM CLR 31/24 A3004 RMK AO2
KVNC 231335Z AUTO 30006KT 10SM FEW026 30/23 A3004 RMK AO2
KVNC 231315Z AUTO 28007KT 9SM FEW026 SCT039 30/24 A3003 RMK AO2
KVNC 231255Z AUTO 28007KT 9SM FEW025 30/24 A3003 RMK AO2
KVNC 231235Z AUTO 27008KT 10SM FEW025 30/24 A3002 RMK AO2
KVNC 231215Z AUTO 26007KT 10SM FEW024 30/24 A3002 RMK AO2
KVNC 231155Z AUTO 27006KT 10SM FEW024 30/24 A3002 RMK AO2
KVNC 231135Z AUTO 26006KT 10SM FEW024 29/24 A3001 RMK AO2
KVNC 231115Z AUTO 25005KT 10SM FEW024 29/24 A3000 RMK AO2
KVNC 231055Z AUTO 25006KT 10SM FEW024 29/24 A3000 RMK AO2
KVNC 231035Z AUTO 25005KT 10SM CLR 28/23 A3000 RMK AO2
KVNC 231015Z AUTO 25005KT 10SM FEW025 28/24 A2999 RMK AO2
KVNC 230955Z AUTO 24005KT 10SM CLR 28/24 A2999 RMK AO2
KVNC 230935Z AUTO 24006KT 10SM FEW025 FEW031 28/23 A2999 RMK AO2
KVNC 230915Z AUTO 26005KT 10SM SCT025 BKN031 29/23 A2998 RMK AO2
KVNC 230855Z AUTO 26005KT 10SM BKN026 BKN031 29/24 A2999 RMK AO2
KVNC 230835Z AUTO 25006KT 10SM BKN026 BKN032 29/23 A2998 RMK AO2
KVNC 230815Z AUTO 25006KT 10SM BKN028 BKN033 29/24 A2999 RMK AO2
KVNC 230755Z AUTO 26005KT 10SM BKN026 BKN030 29/24 A2999 RMK AO2
KVNC 230735Z AUTO 24005KT 9SM SCT025 28/24 A2999 RMK AO2
KVNC 230715Z AUTO 25006KT 10SM FEW024 29/24 A2999 RMK AO2
KVNC 230655Z AUTO 27006KT 9SM FEW021 28/24 A2999 RMK AO2
KVNC 230635Z AUTO 27007KT 10SM CLR 29/24 A2999 RMK AO2
KVNC 230615Z AUTO 27005KT 10SM FEW021 29/25 A3000 RMK AO2
KVNC 230555Z AUTO 28006KT 10SM FEW022 29/25 A3000 RMK AO2
KVNC 230535Z AUTO 27006KT 10SM FEW021 29/24 A3001 RMK AO2
KVNC 230515Z AUTO 26009KT 10SM FEW020 29/25 A3001 RMK AO2
KVNC 230455Z AUTO 27008KT 10SM FEW021 29/25 A3001 RMK AO2
KVNC 230435Z AUTO 27007KT 10SM FEW021 29/25 A3001 RMK AO2
KVNC 230415Z AUTO 29006KT 10SM FEW022 29/25 A3001 RMK AO2
KVNC 230355Z AUTO 28006KT 10SM SCT022 SCT027 SCT034 29/25 A3000 RMK AO2
KVNC 230335Z AUTO 28006KT 10SM FEW022 BKN027 BKN034 29/25 A3000 RMK AO2
KVNC 230315Z AUTO 29006KT 10SM SCT022 BKN027 BKN038 29/25 A3001 RMK AO2
KVNC 230255Z AUTO 27004KT 10SM FEW023 29/25 A3001 RMK AO2
KVNC 230235Z AUTO 26005KT 10SM FEW023 29/25 A3000 RMK AO2
KVNC 230215Z AUTO 31005KT 10SM FEW023 29/25 A3000 RMK AO2
KVNC 230155Z AUTO 30005KT 10SM CLR 29/24 A2999 RMK AO2
KVNC 230135Z AUTO 29005KT 10SM FEW024 29/24 A2999 RMK AO2
KVNC 230115Z AUTO 31006KT 10SM SCT024 SCT080 29/24 A2999 RMK AO2
KVNC 230055Z AUTO 28005KT 10SM CLR 29/24 A2998 RMK AO2
KVNC 230035Z AUTO 30007KT 10SM FEW023 FEW032 FEW039 30/24 A2998 RMK AO2
KVNC 230015Z AUTO 30007KT 10SM FEW021 FEW026 FEW032 30/24 A2997 RMK AO2
KVNC 222355Z AUTO 29008KT 10SM SCT021 SCT027 SCT050 30/25 A2996 RMK AO2 LTG DSNT NE AND SE
KVNC 222335Z AUTO 29009KT 9SM SCT022 SCT027 31/25 A2996 RMK AO2 LTG DSNT E
KVNC 222315Z AUTO 29010KT 10SM FEW022 31/25 A2995 RMK AO2 LTG DSNT E
KVNC 222255Z AUTO 27009KT 10SM FEW022 FEW039 31/25 A2995 RMK AO2 LTG DSNT E
KVNC 222235Z AUTO 27010KT 10SM FEW024 FEW029 32/25 A2996 RMK AO2 LTG DSNT E AND SE
KVNC 222215Z AUTO 28012KT 10SM FEW024 FEW029 32/25 A2996 RMK AO2
KVNC 222155Z AUTO 29011KT 10SM FEW025 32/25 A2996 RMK AO2
KVNC 222135Z AUTO 28011KT 10SM FEW023 32/25 A2997 RMK AO2
KVNC 222115Z AUTO 28011KT 10SM FEW023 32/25 A2997 RMK AO2
KVNC 222055Z AUTO 28012KT 10SM CLR 32/24 A2997 RMK AO2
KVNC 222035Z AUTO 27012KT 10SM FEW033 FEW041 32/25 A2997 RMK AO2 LTG DSNT NE AND E
KVNC 222015Z AUTO 28011KT 10SM FEW020 32/25 A2998 RMK AO2
KVNC 221955Z AUTO 26011KT 10SM SCT021 SCT030 SCT070 32/26 A2998 RMK AO2 LTG DSNT SW
KVNC 221935Z AUTO 26008KT 10SM FEW023 32/26 A2999 RMK AO2